sensor_id;sensor_type;location;lat;lon;timestamp;P1;durP1;ratioP1;P2;durP2;ratioP2
43160;SDS011;40968;52.342;5.528;2024-02-04T00:01:59;14.48;;;5.18;;
43160;SDS011;40968;52.342;5.528;2024-02-04T00:04:30;18.48;;;5.43;;
43160;SDS011;40968;52.342;5.528;2024-02-04T00:06:57;20.02;;;6.18;;
43160;SDS011;40968;52.342;5.528;2024-02-04T00:09:24;13.88;;;5.50;;
43160;SDS011;40968;52.342;5.528;2024-02-04T00:11:53;22.45;;;6.72;;
43160;SDS011;40968;52.342;5.528;2024-02-04T00:14:19;14.18;;;5.78;;
43160;SDS011;40968;52.342;5.528;2024-02-04T00:16:46;17.75;;;5.28;;
43160;SDS011;40968;52.342;5.528;2024-02-04T00:19:12;16.00;;;5.13;;
43160;SDS011;40968;52.342;5.528;2024-02-04T00:21:40;22.35;;;5.68;;
43160;SDS011;40968;52.342;5.528;2024-02-04T00:24:07;18.50;;;5.40;;
43160;SDS011;40968;52.342;5.528;2024-02-04T00:26:33;14.27;;;4.80;;
43160;SDS011;40968;52.342;5.528;2024-02-04T00:29:00;13.15;;;5.40;;
43160;SDS011;40968;52.342;5.528;2024-02-04T00:31:25;14.00;;;5.05;;
43160;SDS011;40968;52.342;5.528;2024-02-04T00:33:52;19.15;;;5.00;;
43160;SDS011;40968;52.342;5.528;2024-02-04T00:36:18;13.65;;;5.32;;
43160;SDS011;40968;52.342;5.528;2024-02-04T00:38:47;13.88;;;4.32;;
43160;SDS011;40968;52.342;5.528;2024-02-04T00:41:14;12.10;;;4.32;;
43160;SDS011;40968;52.342;5.528;2024-02-04T00:43:40;15.38;;;4.32;;
43160;SDS011;40968;52.342;5.528;2024-02-04T00:46:07;15.18;;;4.07;;
43160;SDS011;40968;52.342;5.528;2024-02-04T00:48:35;9.23;;;3.85;;
43160;SDS011;40968;52.342;5.528;2024-02-04T00:51:01;9.90;;;4.00;;
43160;SDS011;40968;52.342;5.528;2024-02-04T00:53:28;10.32;;;3.60;;
43160;SDS011;40968;52.342;5.528;2024-02-04T00:56:00;15.95;;;3.80;;
43160;SDS011;40968;52.342;5.528;2024-02-04T00:58:26;17.80;;;4.15;;
43160;SDS011;40968;52.342;5.528;2024-02-04T01:00:53;9.38;;;3.30;;
43160;SDS011;40968;52.342;5.528;2024-02-04T01:03:20;9.15;;;3.90;;
43160;SDS011;40968;52.342;5.528;2024-02-04T01:05:46;13.13;;;3.67;;
43160;SDS011;40968;52.342;5.528;2024-02-04T01:08:13;14.05;;;3.80;;
43160;SDS011;40968;52.342;5.528;2024-02-04T01:10:39;12.95;;;3.90;;
43160;SDS011;40968;52.342;5.528;2024-02-04T01:13:07;11.43;;;4.22;;
43160;SDS011;40968;52.342;5.528;2024-02-04T01:15:34;14.43;;;4.75;;
43160;SDS011;40968;52.342;5.528;2024-02-04T01:18:00;13.95;;;4.75;;
43160;SDS011;40968;52.342;5.528;2024-02-04T01:20:27;15.05;;;4.65;;
43160;SDS011;40968;52.342;5.528;2024-02-04T01:22:53;12.45;;;4.60;;
43160;SDS011;40968;52.342;5.528;2024-02-04T01:25:20;12.00;;;4.25;;
43160;SDS011;40968;52.342;5.528;2024-02-04T01:27:46;13.98;;;4.60;;
43160;SDS011;40968;52.342;5.528;2024-02-04T01:30:14;16.25;;;4.70;;
43160;SDS011;40968;52.342;5.528;2024-02-04T01:32:41;13.43;;;4.35;;
43160;SDS011;40968;52.342;5.528;2024-02-04T01:35:08;29.08;;;6.18;;
43160;SDS011;40968;52.342;5.528;2024-02-04T01:37:35;12.98;;;5.45;;
43160;SDS011;40968;52.342;5.528;2024-02-04T01:40:01;15.38;;;5.82;;
43160;SDS011;40968;52.342;5.528;2024-02-04T01:42:28;16.88;;;5.47;;
43160;SDS011;40968;52.342;5.528;2024-02-04T01:44:54;17.80;;;5.32;;
43160;SDS011;40968;52.342;5.528;2024-02-04T01:47:22;16.15;;;5.22;;
43160;SDS011;40968;52.342;5.528;2024-02-04T01:49:48;22.42;;;5.82;;
43160;SDS011;40968;52.342;5.528;2024-02-04T01:52:15;16.30;;;5.30;;
43160;SDS011;40968;52.342;5.528;2024-02-04T01:54:43;19.98;;;5.90;;
43160;SDS011;40968;52.342;5.528;2024-02-04T01:57:10;23.52;;;5.63;;
43160;SDS011;40968;52.342;5.528;2024-02-04T01:59:38;16.00;;;5.03;;
43160;SDS011;40968;52.342;5.528;2024-02-04T02:02:05;18.05;;;6.30;;
43160;SDS011;40968;52.342;5.528;2024-02-04T02:04:34;24.58;;;5.93;;
43160;SDS011;40968;52.342;5.528;2024-02-04T02:07:00;17.70;;;4.97;;
43160;SDS011;40968;52.342;5.528;2024-02-04T02:09:28;26.52;;;5.45;;
43160;SDS011;40968;52.342;5.528;2024-02-04T02:11:57;18.27;;;4.68;;
43160;SDS011;40968;52.342;5.528;2024-02-04T02:14:28;18.58;;;5.05;;
43160;SDS011;40968;52.342;5.528;2024-02-04T02:16:59;12.30;;;4.43;;
43160;SDS011;40968;52.342;5.528;2024-02-04T02:19:37;24.58;;;5.53;;
43160;SDS011;40968;52.342;5.528;2024-02-04T02:22:14;23.70;;;4.70;;
43160;SDS011;40968;52.342;5.528;2024-02-04T02:24:51;13.50;;;4.65;;
43160;SDS011;40968;52.342;5.528;2024-02-04T02:27:18;19.80;;;5.32;;
43160;SDS011;40968;52.342;5.528;2024-02-04T02:29:45;19.92;;;5.40;;
43160;SDS011;40968;52.342;5.528;2024-02-04T02:32:11;18.65;;;4.18;;
43160;SDS011;40968;52.342;5.528;2024-02-04T02:34:38;10.63;;;3.55;;
43160;SDS011;40968;52.342;5.528;2024-02-04T02:37:08;15.95;;;3.65;;
43160;SDS011;40968;52.342;5.528;2024-02-04T02:39:45;15.00;;;3.80;;
43160;SDS011;40968;52.342;5.528;2024-02-04T02:42:16;10.55;;;3.55;;
43160;SDS011;40968;52.342;5.528;2024-02-04T02:44:43;15.73;;;4.03;;
43160;SDS011;40968;52.342;5.528;2024-02-04T02:47:12;14.65;;;3.38;;
43160;SDS011;40968;52.342;5.528;2024-02-04T02:49:40;9.45;;;3.28;;
43160;SDS011;40968;52.342;5.528;2024-02-04T02:52:07;18.98;;;3.50;;
43160;SDS011;40968;52.342;5.528;2024-02-04T02:54:33;8.73;;;2.97;;
43160;SDS011;40968;52.342;5.528;2024-02-04T02:57:00;14.98;;;3.10;;
43160;SDS011;40968;52.342;5.528;2024-02-04T02:59:28;25.23;;;4.15;;
43160;SDS011;40968;52.342;5.528;2024-02-04T03:01:55;15.05;;;3.53;;
43160;SDS011;40968;52.342;5.528;2024-02-04T03:04:22;11.93;;;3.03;;
43160;SDS011;40968;52.342;5.528;2024-02-04T03:06:48;11.43;;;3.75;;
43160;SDS011;40968;52.342;5.528;2024-02-04T03:09:15;17.42;;;3.70;;
43160;SDS011;40968;52.342;5.528;2024-02-04T03:11:42;17.25;;;3.55;;
43160;SDS011;40968;52.342;5.528;2024-02-04T03:14:08;14.70;;;3.28;;
43160;SDS011;40968;52.342;5.528;2024-02-04T03:16:36;14.07;;;3.30;;
43160;SDS011;40968;52.342;5.528;2024-02-04T03:19:04;10.40;;;2.85;;
43160;SDS011;40968;52.342;5.528;2024-02-04T03:21:31;16.83;;;3.25;;
43160;SDS011;40968;52.342;5.528;2024-02-04T03:23:58;13.10;;;2.55;;
43160;SDS011;40968;52.342;5.528;2024-02-04T03:26:24;15.18;;;3.05;;
43160;SDS011;40968;52.342;5.528;2024-02-04T03:28:51;15.05;;;3.67;;
43160;SDS011;40968;52.342;5.528;2024-02-04T03:31:19;13.75;;;2.78;;
43160;SDS011;40968;52.342;5.528;2024-02-04T03:33:47;12.38;;;2.45;;
43160;SDS011;40968;52.342;5.528;2024-02-04T03:36:15;11.52;;;2.67;;
43160;SDS011;40968;52.342;5.528;2024-02-04T03:38:44;12.48;;;3.08;;
43160;SDS011;40968;52.342;5.528;2024-02-04T03:41:11;10.55;;;3.00;;
43160;SDS011;40968;52.342;5.528;2024-02-04T03:43:37;8.73;;;2.47;;
43160;SDS011;40968;52.342;5.528;2024-02-04T03:46:04;14.27;;;2.72;;
43160;SDS011;40968;52.342;5.528;2024-02-04T03:48:30;7.50;;;2.47;;
43160;SDS011;40968;52.342;5.528;2024-02-04T03:51:00;15.82;;;2.75;;
43160;SDS011;40968;52.342;5.528;2024-02-04T03:53:26;9.60;;;3.00;;
43160;SDS011;40968;52.342;5.528;2024-02-04T03:55:53;14.20;;;3.15;;
43160;SDS011;40968;52.342;5.528;2024-02-04T03:58:20;16.83;;;2.88;;
43160;SDS011;40968;52.342;5.528;2024-02-04T04:00:54;10.98;;;2.85;;
43160;SDS011;40968;52.342;5.528;2024-02-04T04:03:20;12.02;;;3.03;;
43160;SDS011;40968;52.342;5.528;2024-02-04T04:05:47;11.15;;;3.33;;
43160;SDS011;40968;52.342;5.528;2024-02-04T04:08:15;11.93;;;3.22;;
43160;SDS011;40968;52.342;5.528;2024-02-04T04:10:43;15.50;;;3.28;;
43160;SDS011;40968;52.342;5.528;2024-02-04T04:13:09;13.18;;;2.97;;
43160;SDS011;40968;52.342;5.528;2024-02-04T04:15:36;9.98;;;3.00;;
43160;SDS011;40968;52.342;5.528;2024-02-04T04:18:03;11.48;;;2.92;;
43160;SDS011;40968;52.342;5.528;2024-02-04T04:20:30;16.77;;;3.30;;
43160;SDS011;40968;52.342;5.528;2024-02-04T04:22:57;12.40;;;3.33;;
43160;SDS011;40968;52.342;5.528;2024-02-04T04:25:24;9.40;;;2.53;;
43160;SDS011;40968;52.342;5.528;2024-02-04T04:27:51;17.77;;;3.05;;
43160;SDS011;40968;52.342;5.528;2024-02-04T04:30:18;10.45;;;2.83;;
43160;SDS011;40968;52.342;5.528;2024-02-04T04:32:44;12.93;;;3.03;;
43160;SDS011;40968;52.342;5.528;2024-02-04T04:35:11;6.68;;;2.90;;
43160;SDS011;40968;52.342;5.528;2024-02-04T04:37:37;14.30;;;2.80;;
43160;SDS011;40968;52.342;5.528;2024-02-04T04:40:04;11.18;;;2.33;;
43160;SDS011;40968;52.342;5.528;2024-02-04T04:42:33;19.63;;;3.05;;
43160;SDS011;40968;52.342;5.528;2024-02-04T04:44:59;13.35;;;2.70;;
43160;SDS011;40968;52.342;5.528;2024-02-04T04:47:26;10.98;;;2.38;;
43160;SDS011;40968;52.342;5.528;2024-02-04T04:49:52;37.10;;;2.83;;
43160;SDS011;40968;52.342;5.528;2024-02-04T04:52:19;15.88;;;3.17;;
43160;SDS011;40968;52.342;5.528;2024-02-04T04:54:47;13.32;;;2.60;;
43160;SDS011;40968;52.342;5.528;2024-02-04T04:57:14;15.68;;;2.30;;
43160;SDS011;40968;52.342;5.528;2024-02-04T04:59:42;6.65;;;2.28;;
43160;SDS011;40968;52.342;5.528;2024-02-04T05:02:09;6.18;;;2.00;;
43160;SDS011;40968;52.342;5.528;2024-02-04T05:04:36;14.65;;;2.72;;
43160;SDS011;40968;52.342;5.528;2024-02-04T05:07:03;8.30;;;3.03;;
43160;SDS011;40968;52.342;5.528;2024-02-04T05:09:30;13.10;;;2.55;;
43160;SDS011;40968;52.342;5.528;2024-02-04T05:11:56;30.33;;;3.50;;
43160;SDS011;40968;52.342;5.528;2024-02-04T05:14:23;14.88;;;2.67;;
43160;SDS011;40968;52.342;5.528;2024-02-04T05:16:52;9.38;;;2.28;;
43160;SDS011;40968;52.342;5.528;2024-02-04T05:19:18;12.07;;;2.53;;
43160;SDS011;40968;52.342;5.528;2024-02-04T05:21:45;12.18;;;2.65;;
43160;SDS011;40968;52.342;5.528;2024-02-04T05:24:11;9.98;;;2.50;;
43160;SDS011;40968;52.342;5.528;2024-02-04T05:26:38;12.48;;;2.72;;
43160;SDS011;40968;52.342;5.528;2024-02-04T05:29:04;10.57;;;2.40;;
43160;SDS011;40968;52.342;5.528;2024-02-04T05:31:31;10.52;;;2.60;;
43160;SDS011;40968;52.342;5.528;2024-02-04T05:33:59;10.88;;;2.65;;
43160;SDS011;40968;52.342;5.528;2024-02-04T05:36:25;10.23;;;2.65;;
43160;SDS011;40968;52.342;5.528;2024-02-04T05:38:52;12.80;;;2.65;;
43160;SDS011;40968;52.342;5.528;2024-02-04T05:41:19;10.85;;;2.58;;
43160;SDS011;40968;52.342;5.528;2024-02-04T05:43:45;15.38;;;2.78;;
43160;SDS011;40968;52.342;5.528;2024-02-04T05:46:13;10.32;;;2.60;;
43160;SDS011;40968;52.342;5.528;2024-02-04T05:48:39;19.52;;;3.30;;
43160;SDS011;40968;52.342;5.528;2024-02-04T05:51:10;10.43;;;2.33;;
43160;SDS011;40968;52.342;5.528;2024-02-04T05:53:37;8.35;;;2.40;;
43160;SDS011;40968;52.342;5.528;2024-02-04T05:56:04;11.02;;;2.55;;
43160;SDS011;40968;52.342;5.528;2024-02-04T05:58:30;16.30;;;2.78;;
43160;SDS011;40968;52.342;5.528;2024-02-04T06:00:57;14.02;;;2.53;;
43160;SDS011;40968;52.342;5.528;2024-02-04T06:03:23;18.48;;;3.03;;
43160;SDS011;40968;52.342;5.528;2024-02-04T06:05:50;10.93;;;3.05;;
43160;SDS011;40968;52.342;5.528;2024-02-04T06:08:18;10.30;;;2.75;;
43160;SDS011;40968;52.342;5.528;2024-02-04T06:10:44;13.85;;;2.97;;
43160;SDS011;40968;52.342;5.528;2024-02-04T06:13:11;14.80;;;2.90;;
43160;SDS011;40968;52.342;5.528;2024-02-04T06:15:38;13.27;;;2.90;;
43160;SDS011;40968;52.342;5.528;2024-02-04T06:18:04;11.70;;;2.90;;
43160;SDS011;40968;52.342;5.528;2024-02-04T06:20:31;11.18;;;3.17;;
43160;SDS011;40968;52.342;5.528;2024-02-04T06:22:58;14.60;;;3.20;;
43160;SDS011;40968;52.342;5.528;2024-02-04T06:25:27;10.75;;;2.80;;
43160;SDS011;40968;52.342;5.528;2024-02-04T06:27:53;12.68;;;3.40;;
43160;SDS011;40968;52.342;5.528;2024-02-04T06:30:20;28.13;;;3.53;;
43160;SDS011;40968;52.342;5.528;2024-02-04T06:32:47;18.13;;;3.90;;
43160;SDS011;40968;52.342;5.528;2024-02-04T06:35:14;32.08;;;3.72;;
43160;SDS011;40968;52.342;5.528;2024-02-04T06:37:41;20.50;;;3.80;;
43160;SDS011;40968;52.342;5.528;2024-02-04T06:40:08;13.23;;;4.22;;
43160;SDS011;40968;52.342;5.528;2024-02-04T06:42:37;11.48;;;3.00;;
43160;SDS011;40968;52.342;5.528;2024-02-04T06:45:04;14.38;;;3.35;;
43160;SDS011;40968;52.342;5.528;2024-02-04T06:47:31;16.17;;;3.22;;
43160;SDS011;40968;52.342;5.528;2024-02-04T06:49:57;9.88;;;3.30;;
43160;SDS011;40968;52.342;5.528;2024-02-04T06:52:24;15.80;;;3.50;;
43160;SDS011;40968;52.342;5.528;2024-02-04T06:54:50;19.58;;;4.00;;
43160;SDS011;40968;52.342;5.528;2024-02-04T06:57:17;17.42;;;3.80;;
43160;SDS011;40968;52.342;5.528;2024-02-04T06:59:45;16.70;;;3.88;;
43160;SDS011;40968;52.342;5.528;2024-02-04T07:02:11;13.30;;;3.50;;
43160;SDS011;40968;52.342;5.528;2024-02-04T07:04:38;11.02;;;3.67;;
43160;SDS011;40968;52.342;5.528;2024-02-04T07:07:04;14.77;;;3.80;;
43160;SDS011;40968;52.342;5.528;2024-02-04T07:09:31;22.02;;;4.30;;
43160;SDS011;40968;52.342;5.528;2024-02-04T07:11:57;30.77;;;4.70;;
43160;SDS011;40968;52.342;5.528;2024-02-04T07:14:24;18.40;;;4.00;;
43160;SDS011;40968;52.342;5.528;2024-02-04T07:16:52;16.02;;;4.15;;
43160;SDS011;40968;52.342;5.528;2024-02-04T07:19:18;16.40;;;4.32;;
43160;SDS011;40968;52.342;5.528;2024-02-04T07:21:45;14.75;;;4.13;;
43160;SDS011;40968;52.342;5.528;2024-02-04T07:24:12;17.52;;;4.13;;
43160;SDS011;40968;52.342;5.528;2024-02-04T07:26:38;14.50;;;4.40;;
43160;SDS011;40968;52.342;5.528;2024-02-04T07:29:05;12.43;;;4.10;;
43160;SDS011;40968;52.342;5.528;2024-02-04T07:31:31;14.38;;;4.03;;
43160;SDS011;40968;52.342;5.528;2024-02-04T07:34:03;17.00;;;5.05;;
43160;SDS011;40968;52.342;5.528;2024-02-04T07:36:30;12.88;;;3.80;;
43160;SDS011;40968;52.342;5.528;2024-02-04T07:38:57;16.08;;;3.92;;
43160;SDS011;40968;52.342;5.528;2024-02-04T07:41:24;16.40;;;3.67;;
43160;SDS011;40968;52.342;5.528;2024-02-04T07:43:52;13.80;;;3.20;;
43160;SDS011;40968;52.342;5.528;2024-02-04T07:46:18;15.07;;;3.85;;
43160;SDS011;40968;52.342;5.528;2024-02-04T07:48:45;11.38;;;3.63;;
43160;SDS011;40968;52.342;5.528;2024-02-04T07:51:13;16.50;;;4.30;;
43160;SDS011;40968;52.342;5.528;2024-02-04T07:53:39;15.55;;;3.65;;
43160;SDS011;40968;52.342;5.528;2024-02-04T07:56:06;16.15;;;3.90;;
43160;SDS011;40968;52.342;5.528;2024-02-04T07:58:33;18.80;;;4.43;;
43160;SDS011;40968;52.342;5.528;2024-02-04T08:01:00;11.05;;;4.78;;
43160;SDS011;40968;52.342;5.528;2024-02-04T08:03:26;13.43;;;4.38;;
43160;SDS011;40968;52.342;5.528;2024-02-04T08:05:53;19.80;;;6.00;;
43160;SDS011;40968;52.342;5.528;2024-02-04T08:08:21;16.63;;;6.30;;
43160;SDS011;40968;52.342;5.528;2024-02-04T08:10:47;21.67;;;7.03;;
43160;SDS011;40968;52.342;5.528;2024-02-04T08:13:14;26.02;;;7.53;;
43160;SDS011;40968;52.342;5.528;2024-02-04T08:15:41;24.75;;;7.88;;
43160;SDS011;40968;52.342;5.528;2024-02-04T08:18:07;29.90;;;9.32;;
43160;SDS011;40968;52.342;5.528;2024-02-04T08:20:34;26.73;;;7.97;;
43160;SDS011;40968;52.342;5.528;2024-02-04T08:23:00;30.50;;;8.27;;
43160;SDS011;40968;52.342;5.528;2024-02-04T08:25:28;15.30;;;7.00;;
43160;SDS011;40968;52.342;5.528;2024-02-04T08:27:55;26.25;;;7.45;;
43160;SDS011;40968;52.342;5.528;2024-02-04T08:30:21;24.98;;;7.15;;
43160;SDS011;40968;52.342;5.528;2024-02-04T08:32:48;31.52;;;7.00;;
43160;SDS011;40968;52.342;5.528;2024-02-04T08:35:14;17.63;;;5.65;;
43160;SDS011;40968;52.342;5.528;2024-02-04T08:37:41;19.10;;;6.07;;
43160;SDS011;40968;52.342;5.528;2024-02-04T08:40:08;20.15;;;5.60;;
43160;SDS011;40968;52.342;5.528;2024-02-04T08:42:37;37.13;;;5.82;;
43160;SDS011;40968;52.342;5.528;2024-02-04T08:45:04;17.98;;;4.45;;
43160;SDS011;40968;52.342;5.528;2024-02-04T08:47:31;14.55;;;4.75;;
43160;SDS011;40968;52.342;5.528;2024-02-04T08:49:58;13.20;;;5.13;;
43160;SDS011;40968;52.342;5.528;2024-02-04T08:52:24;15.35;;;4.82;;
43160;SDS011;40968;52.342;5.528;2024-02-04T08:54:51;18.42;;;3.65;;
43160;SDS011;40968;52.342;5.528;2024-02-04T08:57:17;19.48;;;3.97;;
43160;SDS011;40968;52.342;5.528;2024-02-04T08:59:45;11.02;;;3.47;;
43160;SDS011;40968;52.342;5.528;2024-02-04T09:02:12;15.90;;;3.50;;
43160;SDS011;40968;52.342;5.528;2024-02-04T09:04:38;11.80;;;3.58;;
43160;SDS011;40968;52.342;5.528;2024-02-04T09:07:06;14.88;;;3.10;;
43160;SDS011;40968;52.342;5.528;2024-02-04T09:09:33;9.32;;;3.85;;
43160;SDS011;40968;52.342;5.528;2024-02-04T09:11:59;13.32;;;3.10;;
43160;SDS011;40968;52.342;5.528;2024-02-04T09:14:26;12.05;;;3.08;;
43160;SDS011;40968;52.342;5.528;2024-02-04T09:16:54;8.20;;;2.65;;
43160;SDS011;40968;52.342;5.528;2024-02-04T09:19:20;11.00;;;2.80;;
43160;SDS011;40968;52.342;5.528;2024-02-04T09:21:47;13.63;;;3.13;;
43160;SDS011;40968;52.342;5.528;2024-02-04T09:24:13;12.82;;;3.50;;
43160;SDS011;40968;52.342;5.528;2024-02-04T09:26:40;12.93;;;4.15;;
43160;SDS011;40968;52.342;5.528;2024-02-04T09:29:07;11.40;;;3.47;;
43160;SDS011;40968;52.342;5.528;2024-02-04T09:31:33;13.98;;;3.85;;
43160;SDS011;40968;52.342;5.528;2024-02-04T09:34:01;13.60;;;4.07;;
43160;SDS011;40968;52.342;5.528;2024-02-04T09:36:27;15.95;;;5.20;;
43160;SDS011;40968;52.342;5.528;2024-02-04T09:38:54;21.77;;;5.05;;
43160;SDS011;40968;52.342;5.528;2024-02-04T09:41:21;16.25;;;5.55;;
43160;SDS011;40968;52.342;5.528;2024-02-04T09:43:50;27.73;;;5.80;;
43160;SDS011;40968;52.342;5.528;2024-02-04T09:46:16;19.02;;;5.85;;
43160;SDS011;40968;52.342;5.528;2024-02-04T09:48:44;18.67;;;5.18;;
43160;SDS011;40968;52.342;5.528;2024-02-04T09:51:12;14.70;;;4.68;;
43160;SDS011;40968;52.342;5.528;2024-02-04T09:53:41;16.67;;;4.57;;
43160;SDS011;40968;52.342;5.528;2024-02-04T09:56:10;19.50;;;5.03;;
43160;SDS011;40968;52.342;5.528;2024-02-04T09:58:38;13.57;;;3.70;;
43160;SDS011;40968;52.342;5.528;2024-02-04T10:01:04;17.13;;;4.13;;
43160;SDS011;40968;52.342;5.528;2024-02-04T10:03:34;14.20;;;3.78;;
43160;SDS011;40968;52.342;5.528;2024-02-04T10:06:01;19.60;;;3.50;;
43160;SDS011;40968;52.342;5.528;2024-02-04T10:08:29;13.32;;;3.05;;
43160;SDS011;40968;52.342;5.528;2024-02-04T10:10:55;9.38;;;3.00;;
43160;SDS011;40968;52.342;5.528;2024-02-04T10:13:22;8.48;;;2.90;;
43160;SDS011;40968;52.342;5.528;2024-02-04T10:15:49;10.88;;;3.25;;
43160;SDS011;40968;52.342;5.528;2024-02-04T10:18:17;8.15;;;3.35;;
43160;SDS011;40968;52.342;5.528;2024-02-04T10:20:44;11.48;;;3.00;;
43160;SDS011;40968;52.342;5.528;2024-02-04T10:23:10;11.57;;;3.05;;
43160;SDS011;40968;52.342;5.528;2024-02-04T10:25:38;7.93;;;2.50;;
43160;SDS011;40968;52.342;5.528;2024-02-04T10:28:05;10.00;;;3.30;;
43160;SDS011;40968;52.342;5.528;2024-02-04T10:30:32;6.10;;;1.80;;
43160;SDS011;40968;52.342;5.528;2024-02-04T10:32:59;6.25;;;2.15;;
43160;SDS011;40968;52.342;5.528;2024-02-04T10:35:26;10.05;;;1.95;;
43160;SDS011;40968;52.342;5.528;2024-02-04T10:37:52;3.08;;;1.60;;
43160;SDS011;40968;52.342;5.528;2024-02-04T10:40:19;11.13;;;1.70;;
43160;SDS011;40968;52.342;5.528;2024-02-04T10:42:47;5.20;;;1.70;;
43160;SDS011;40968;52.342;5.528;2024-02-04T10:45:17;11.32;;;1.90;;
43160;SDS011;40968;52.342;5.528;2024-02-04T10:47:44;5.38;;;1.67;;
43160;SDS011;40968;52.342;5.528;2024-02-04T10:50:21;3.33;;;1.42;;
43160;SDS011;40968;52.342;5.528;2024-02-04T10:52:50;7.38;;;1.60;;
43160;SDS011;40968;52.342;5.528;2024-02-04T10:55:17;3.78;;;1.60;;
43160;SDS011;40968;52.342;5.528;2024-02-04T10:57:54;5.68;;;1.40;;
43160;SDS011;40968;52.342;5.528;2024-02-04T11:00:21;6.03;;;1.80;;
43160;SDS011;40968;52.342;5.528;2024-02-04T11:02:48;9.63;;;1.80;;
43160;SDS011;40968;52.342;5.528;2024-02-04T11:05:19;5.25;;;1.40;;
43160;SDS011;40968;52.342;5.528;2024-02-04T11:07:47;5.95;;;1.48;;
43160;SDS011;40968;52.342;5.528;2024-02-04T11:10:15;12.80;;;1.90;;
43160;SDS011;40968;52.342;5.528;2024-02-04T11:12:44;6.93;;;1.60;;
43160;SDS011;40968;52.342;5.528;2024-02-04T11:15:13;4.60;;;2.00;;
43160;SDS011;40968;52.342;5.528;2024-02-04T11:20:45;5.25;;;1.50;;
43160;SDS011;40968;52.342;5.528;2024-02-04T11:23:31;5.95;;;1.73;;
43160;SDS011;40968;52.342;5.528;2024-02-04T11:26:08;10.60;;;1.60;;
43160;SDS011;40968;52.342;5.528;2024-02-04T11:28:37;4.07;;;1.42;;
43160;SDS011;40968;52.342;5.528;2024-02-04T11:31:09;5.30;;;1.45;;
43160;SDS011;40968;52.342;5.528;2024-02-04T11:33:40;8.48;;;2.13;;
43160;SDS011;40968;52.342;5.528;2024-02-04T11:36:07;8.48;;;2.17;;
43160;SDS011;40968;52.342;5.528;2024-02-04T11:38:38;3.83;;;1.58;;
43160;SDS011;40968;52.342;5.528;2024-02-04T11:41:06;9.52;;;1.90;;
43160;SDS011;40968;52.342;5.528;2024-02-04T11:43:33;6.70;;;1.35;;
43160;SDS011;40968;52.342;5.528;2024-02-04T11:46:02;3.45;;;1.70;;
43160;SDS011;40968;52.342;5.528;2024-02-04T11:48:30;3.78;;;1.70;;
43160;SDS011;40968;52.342;5.528;2024-02-04T11:50:58;5.97;;;1.63;;
43160;SDS011;40968;52.342;5.528;2024-02-04T11:53:26;3.05;;;1.40;;
43160;SDS011;40968;52.342;5.528;2024-02-04T11:55:57;5.18;;;1.55;;
43160;SDS011;40968;52.342;5.528;2024-02-04T11:58:24;3.65;;;1.55;;
43160;SDS011;40968;52.342;5.528;2024-02-04T12:00:51;7.25;;;1.55;;
43160;SDS011;40968;52.342;5.528;2024-02-04T12:03:27;3.20;;;1.25;;
43160;SDS011;40968;52.342;5.528;2024-02-04T12:05:56;3.92;;;1.50;;
43160;SDS011;40968;52.342;5.528;2024-02-04T12:08:23;2.90;;;1.15;;
43160;SDS011;40968;52.342;5.528;2024-02-04T12:10:50;3.30;;;1.40;;
43160;SDS011;40968;52.342;5.528;2024-02-04T12:13:18;4.28;;;1.35;;
43160;SDS011;40968;52.342;5.528;2024-02-04T12:15:45;4.50;;;1.10;;
43160;SDS011;40968;52.342;5.528;2024-02-04T12:18:12;2.92;;;1.20;;
43160;SDS011;40968;52.342;5.528;2024-02-04T12:20:39;2.63;;;1.20;;
43160;SDS011;40968;52.342;5.528;2024-02-04T12:23:07;2.05;;;0.93;;
43160;SDS011;40968;52.342;5.528;2024-02-04T12:25:34;6.13;;;1.88;;
43160;SDS011;40968;52.342;5.528;2024-02-04T12:28:01;8.57;;;1.45;;
43160;SDS011;40968;52.342;5.528;2024-02-04T12:30:29;3.08;;;1.13;;
43160;SDS011;40968;52.342;5.528;2024-02-04T12:32:57;2.30;;;0.95;;
43160;SDS011;40968;52.342;5.528;2024-02-04T12:35:24;3.90;;;1.08;;
43160;SDS011;40968;52.342;5.528;2024-02-04T12:37:51;2.95;;;1.45;;
43160;SDS011;40968;52.342;5.528;2024-02-04T12:40:21;5.10;;;2.17;;
43160;SDS011;40968;52.342;5.528;2024-02-04T12:45:18;2.63;;;1.35;;
43160;SDS011;40968;52.342;5.528;2024-02-04T12:47:48;4.78;;;1.33;;
43160;SDS011;40968;52.342;5.528;2024-02-04T12:50:15;4.90;;;1.40;;
43160;SDS011;40968;52.342;5.528;2024-02-04T12:52:43;5.15;;;1.33;;
43160;SDS011;40968;52.342;5.528;2024-02-04T12:55:18;2.95;;;1.10;;
43160;SDS011;40968;52.342;5.528;2024-02-04T12:57:47;2.65;;;0.95;;
43160;SDS011;40968;52.342;5.528;2024-02-04T13:00:17;2.58;;;1.20;;
43160;SDS011;40968;52.342;5.528;2024-02-04T13:02:44;5.68;;;1.65;;
43160;SDS011;40968;52.342;5.528;2024-02-04T13:05:21;10.95;;;1.80;;
43160;SDS011;40968;52.342;5.528;2024-02-04T13:07:50;7.05;;;1.90;;
43160;SDS011;40968;52.342;5.528;2024-02-04T13:10:18;8.75;;;2.58;;
43160;SDS011;40968;52.342;5.528;2024-02-04T13:12:45;10.95;;;3.03;;
43160;SDS011;40968;52.342;5.528;2024-02-04T13:15:13;15.82;;;3.97;;
43160;SDS011;40968;52.342;5.528;2024-02-04T13:17:40;12.57;;;3.88;;
43160;SDS011;40968;52.342;5.528;2024-02-04T13:20:07;17.85;;;4.30;;
43160;SDS011;40968;52.342;5.528;2024-02-04T13:22:34;12.50;;;4.03;;
43160;SDS011;40968;52.342;5.528;2024-02-04T13:25:01;15.88;;;3.83;;
43160;SDS011;40968;52.342;5.528;2024-02-04T13:27:27;14.50;;;4.22;;
43160;SDS011;40968;52.342;5.528;2024-02-04T13:29:54;12.05;;;4.38;;
43160;SDS011;40968;52.342;5.528;2024-02-04T13:32:22;17.50;;;5.00;;
43160;SDS011;40968;52.342;5.528;2024-02-04T13:34:48;19.70;;;4.53;;
43160;SDS011;40968;52.342;5.528;2024-02-04T13:37:16;14.80;;;4.05;;
43160;SDS011;40968;52.342;5.528;2024-02-04T13:39:42;15.30;;;4.40;;
43160;SDS011;40968;52.342;5.528;2024-02-04T13:42:10;15.32;;;4.63;;
43160;SDS011;40968;52.342;5.528;2024-02-04T13:44:36;27.05;;;5.00;;
43160;SDS011;40968;52.342;5.528;2024-02-04T13:47:03;18.92;;;4.38;;
43160;SDS011;40968;52.342;5.528;2024-02-04T13:49:32;22.33;;;4.95;;
43160;SDS011;40968;52.342;5.528;2024-02-04T13:51:58;15.13;;;4.60;;
43160;SDS011;40968;52.342;5.528;2024-02-04T13:54:25;22.83;;;5.38;;
43160;SDS011;40968;52.342;5.528;2024-02-04T13:56:51;21.17;;;4.00;;
43160;SDS011;40968;52.342;5.528;2024-02-04T13:59:18;19.52;;;4.00;;
43160;SDS011;40968;52.342;5.528;2024-02-04T14:01:44;22.38;;;3.90;;
43160;SDS011;40968;52.342;5.528;2024-02-04T14:04:11;14.55;;;3.78;;
43160;SDS011;40968;52.342;5.528;2024-02-04T14:06:39;16.83;;;3.92;;
43160;SDS011;40968;52.342;5.528;2024-02-04T14:09:05;23.75;;;4.97;;
43160;SDS011;40968;52.342;5.528;2024-02-04T14:11:32;13.27;;;3.80;;
43160;SDS011;40968;52.342;5.528;2024-02-04T14:13:59;11.63;;;3.88;;
43160;SDS011;40968;52.342;5.528;2024-02-04T14:16:26;14.30;;;3.85;;
43160;SDS011;40968;52.342;5.528;2024-02-04T14:18:53;14.50;;;3.47;;
43160;SDS011;40968;52.342;5.528;2024-02-04T14:21:19;12.85;;;3.50;;
43160;SDS011;40968;52.342;5.528;2024-02-04T14:23:47;12.77;;;3.10;;
43160;SDS011;40968;52.342;5.528;2024-02-04T14:26:16;16.95;;;3.88;;
43160;SDS011;40968;52.342;5.528;2024-02-04T14:28:43;24.52;;;4.18;;
43160;SDS011;40968;52.342;5.528;2024-02-04T14:31:10;18.48;;;3.42;;
43160;SDS011;40968;52.342;5.528;2024-02-04T14:33:36;11.90;;;3.10;;
43160;SDS011;40968;52.342;5.528;2024-02-04T14:36:04;15.68;;;3.83;;
43160;SDS011;40968;52.342;5.528;2024-02-04T14:38:32;17.63;;;3.50;;
43160;SDS011;40968;52.342;5.528;2024-02-04T14:41:00;13.00;;;3.53;;
43160;SDS011;40968;52.342;5.528;2024-02-04T14:43:26;12.88;;;3.25;;
43160;SDS011;40968;52.342;5.528;2024-02-04T14:45:53;15.23;;;3.35;;